Terminal Aerodrome Forecast
Issued by NWS Austin/San Antonio, TX

Home | Current Version | Previous Version | Text Only | Print | Product List | Glossary On
Versions: 1 2 3 4 5 6 7 8 9 10 11 12 13 14
000
FTUS44 KEWX 211700
TAFAUS
TAF
KAUS 211725Z 2118/2224 07008KT P6SM FEW035 SCT200
     FM220300 VRB04KT P6SM FEW025 BKN200
     FM221800 10007KT P6SM FEW035 BKN150=

USA.gov is the U.S. government's official web portal to all federal, state and local government web resources and services.